createdAt,value
2022-09-24T00:01:42.878Z,3.60
2022-09-24T00:06:42.790Z,3.20
2022-09-24T00:09:10.612Z,3.13
2022-09-24T00:11:39.114Z,3.20
2022-09-24T00:14:07.381Z,3.10
2022-09-24T00:16:35.015Z,2.95
2022-09-24T00:19:03.308Z,3.00
2022-09-24T00:21:35.355Z,3.05
2022-09-24T00:26:32.421Z,3.00
2022-09-24T00:28:59.966Z,3.30
2022-09-24T00:31:27.580Z,3.15
2022-09-24T00:33:55.224Z,3.38
2022-09-24T00:36:23.044Z,3.60
2022-09-24T00:41:43.103Z,3.92
2022-09-24T00:44:35.015Z,3.47
2022-09-24T00:47:01.990Z,3.50
2022-09-24T00:52:16.868Z,3.50
2022-09-24T00:57:31.933Z,3.20
2022-09-24T01:02:50.630Z,2.90
2022-09-24T01:08:06.126Z,2.60
2022-09-24T01:13:58.003Z,2.55
2022-09-24T01:16:34.244Z,3.08
2022-09-24T01:19:09.859Z,3.08
2022-09-24T01:21:44.378Z,2.90
2022-09-24T01:24:35.723Z,2.80
2022-09-24T01:27:40.924Z,3.17
2022-09-24T01:30:13.780Z,3.15
2022-09-24T01:32:54.344Z,2.70
2022-09-24T01:35:38.651Z,2.70
2022-09-24T01:38:09.991Z,2.80
2022-09-24T01:40:38.494Z,2.67
2022-09-24T01:43:07.595Z,3.10
2022-09-24T01:45:36.830Z,2.90
2022-09-24T01:48:05.391Z,2.90
2022-09-24T01:50:40.446Z,2.80
2022-09-24T01:56:22.419Z,0
2022-09-24T01:56:59.350Z,2.80
2022-09-24T01:59:30.238Z,2.80
2022-09-24T02:02:09.005Z,2.55
2022-09-24T02:04:42.956Z,3.00
2022-09-24T02:07:38.707Z,3.30
2022-09-24T02:10:12.954Z,3.00
2022-09-24T02:12:41.796Z,2.93
2022-09-24T02:15:32.229Z,3.15
2022-09-24T02:18:06.890Z,3.20
2022-09-24T02:23:26.071Z,3.10
2022-09-24T02:25:59.009Z,3.40
2022-09-24T02:28:26.831Z,3.40
2022-09-24T02:30:59.308Z,3.10
2022-09-24T02:33:27.448Z,3.08
2022-09-24T02:35:54.372Z,3.20
2022-09-24T02:38:21.113Z,3.60
2022-09-24T02:40:48.805Z,3.15
2022-09-24T02:43:15.720Z,3.50
2022-09-24T02:45:42.431Z,3.30
2022-09-24T02:48:09.168Z,3.00
2022-09-24T02:50:35.927Z,3.30
2022-09-24T02:53:02.781Z,3.10
2022-09-24T02:55:29.532Z,3.30
2022-09-24T02:57:56.268Z,3.10
2022-09-24T03:00:23.032Z,3.20
2022-09-24T03:05:36.410Z,3.50
2022-09-24T03:10:50.597Z,3.50
2022-09-24T03:16:06.175Z,3.33
2022-09-24T03:21:21.992Z,3.30
2022-09-24T03:26:36.002Z,3.60
2022-09-24T03:31:49.385Z,3.33
2022-09-24T03:37:02.795Z,3.75
2022-09-24T03:42:16.155Z,3.60
2022-09-24T03:44:42.858Z,3.40
2022-09-24T03:47:09.590Z,3.50
2022-09-24T03:49:36.330Z,3.60
2022-09-24T03:52:03.072Z,3.78
2022-09-24T03:54:29.820Z,3.70
2022-09-24T03:56:56.527Z,3.60
2022-09-24T03:59:23.396Z,3.80
2022-09-24T04:04:36.899Z,3.60
2022-09-24T04:09:50.900Z,4.00
2022-09-24T04:12:17.648Z,3.90
2022-09-24T04:14:44.380Z,4.07
2022-09-24T04:17:11.123Z,3.80
2022-09-24T04:19:37.881Z,4.43
2022-09-24T04:22:04.617Z,3.95
2022-09-24T04:24:31.321Z,4.65
2022-09-24T04:26:58.074Z,4.60
2022-09-24T04:29:24.778Z,4.60
2022-09-24T04:31:51.574Z,4.70
2022-09-24T04:34:18.328Z,5.10
2022-09-24T04:36:45.047Z,5.60
2022-09-24T04:39:11.831Z,5.00
2022-09-24T04:41:38.811Z,4.87
2022-09-24T04:46:52.349Z,5.03
2022-09-24T04:52:05.777Z,5.07
2022-09-24T04:57:19.255Z,5.13
2022-09-24T05:02:32.741Z,5.80
2022-09-24T05:04:59.619Z,6.00
2022-09-24T05:07:26.365Z,6.00
2022-09-24T05:09:53.113Z,5.90
2022-09-24T05:12:19.865Z,6.20
2022-09-24T05:14:46.648Z,6.40
2022-09-24T05:17:13.361Z,6.32
2022-09-24T05:19:40.109Z,6.13
2022-09-24T05:22:06.873Z,6.20
2022-09-24T05:24:33.593Z,6.53
2022-09-24T05:27:00.319Z,6.05
2022-09-24T05:32:15.696Z,6.30
2022-09-24T05:37:32.963Z,6.70
2022-09-24T05:42:46.331Z,6.50
2022-09-24T05:48:00.178Z,6.90
2022-09-24T05:52:54.385Z,6.90
2022-09-24T05:55:21.127Z,7.28
2022-09-24T06:00:35.325Z,7.43
2022-09-24T06:03:13.829Z,8.05
2022-09-24T06:05:45.147Z,8.35
2022-09-24T06:08:12.240Z,9.07
2022-09-24T06:10:39.124Z,7.97
2022-09-24T06:13:05.837Z,8.50
2022-09-24T06:15:32.559Z,9.00
2022-09-24T06:17:59.284Z,8.80
2022-09-24T06:20:26.035Z,9.57
2022-09-24T06:22:56.114Z,10.10
2022-09-24T06:28:10.087Z,8.35
2022-09-24T06:30:39.073Z,8.20
2022-09-24T06:33:10.779Z,9.40
2022-09-24T06:35:39.462Z,9.98
2022-09-24T06:38:07.435Z,9.20
2022-09-24T06:40:37.490Z,10.00
2022-09-24T06:43:05.383Z,9.88
2022-09-24T06:45:32.244Z,9.65
2022-09-24T06:48:01.163Z,9.80
2022-09-24T06:50:30.124Z,9.98
2022-09-24T06:55:43.993Z,9.80
2022-09-24T07:01:01.845Z,10.80
2022-09-24T07:06:18.326Z,26.02
2022-09-24T07:11:31.756Z,13.23
2022-09-24T07:16:47.458Z,9.10
2022-09-24T07:19:14.212Z,9.27
2022-09-24T07:21:40.945Z,9.10
2022-09-24T07:24:07.760Z,9.00
2022-09-24T07:26:34.484Z,9.10
2022-09-24T07:29:01.210Z,8.40
2022-09-24T07:31:28.032Z,9.48
2022-09-24T07:33:54.825Z,8.88
2022-09-24T07:36:21.606Z,8.90
2022-09-24T07:38:48.432Z,8.85
2022-09-24T07:41:15.174Z,8.80
2022-09-24T07:43:41.946Z,11.25
2022-09-24T07:46:08.756Z,9.20
2022-09-24T07:48:35.558Z,7.23
2022-09-24T07:51:02.293Z,7.30
2022-09-24T07:53:29.062Z,7.07
2022-09-24T07:55:59.216Z,7.70
2022-09-24T07:58:26.024Z,7.30
2022-09-24T08:00:52.827Z,9.03
2022-09-24T08:03:19.672Z,7.00
2022-09-24T08:05:46.675Z,7.07
2022-09-24T08:08:13.462Z,7.00
2022-09-24T08:10:40.332Z,7.13
2022-09-24T08:13:07.072Z,6.90
2022-09-24T08:15:33.826Z,7.40
2022-09-24T08:18:04.547Z,6.67
2022-09-24T08:23:19.820Z,6.45
2022-09-24T08:28:36.392Z,5.65
2022-09-24T08:33:51.836Z,5.10
2022-09-24T08:39:05.303Z,5.82
2022-09-24T08:42:01.237Z,6.00
2022-09-24T08:44:36.195Z,5.05
2022-09-24T08:47:08.976Z,4.05
2022-09-24T08:49:45.908Z,4.18
2022-09-24T08:52:44.654Z,4.20
2022-09-24T08:55:36.303Z,4.20
2022-09-24T08:58:44.979Z,4.20
2022-09-24T09:01:20.521Z,6.88
2022-09-24T09:03:50.413Z,12.00
2022-09-24T09:06:46.385Z,4.55
2022-09-24T09:12:10.733Z,4.20
2022-09-24T09:14:42.157Z,3.90
2022-09-24T09:17:19.937Z,3.70
2022-09-24T09:19:54.004Z,3.97
2022-09-24T09:22:24.339Z,4.37
2022-09-24T09:24:53.618Z,4.00
2022-09-24T09:30:16.925Z,4.50
2022-09-24T09:33:10.439Z,4.45
2022-09-24T09:36:05.284Z,3.78
2022-09-24T09:38:42.969Z,3.80
2022-09-24T09:41:42.730Z,3.90
2022-09-24T09:47:35.492Z,4.38
2022-09-24T09:50:10.483Z,4.63
2022-09-24T09:55:27.850Z,4.45
2022-09-24T09:58:10.223Z,3.80
2022-09-24T10:00:37.267Z,3.65
2022-09-24T10:03:04.803Z,3.92
2022-09-24T10:08:26.032Z,3.75
2022-09-24T10:11:00.402Z,3.88
2022-09-24T10:13:28.051Z,3.70
2022-09-24T10:18:51.071Z,3.90
2022-09-24T10:21:36.143Z,3.20
2022-09-24T10:24:21.301Z,3.92
2022-09-24T10:26:48.945Z,4.22
2022-09-24T10:29:20.752Z,3.90
2022-09-24T10:34:34.267Z,3.70
2022-09-24T10:37:14.209Z,3.50
2022-09-24T10:39:41.079Z,4.50
2022-09-24T10:45:15.823Z,3.15
2022-09-24T10:48:15.226Z,4.10
2022-09-24T10:56:52.224Z,4.30
2022-09-24T10:59:54.040Z,3.17
2022-09-24T11:02:34.026Z,3.20
2022-09-24T11:05:22.576Z,3.00
2022-09-24T11:08:09.938Z,3.80
2022-09-24T11:13:51.617Z,3.80
2022-09-24T11:16:24.409Z,3.03
2022-09-24T11:18:51.214Z,4.20
2022-09-24T11:21:30.670Z,4.32
2022-09-24T11:24:24.360Z,4.15
2022-09-24T11:26:59.692Z,4.27
2022-09-24T11:30:07.434Z,3.77
2022-09-24T11:32:58.834Z,4.20
2022-09-24T11:35:51.637Z,4.30
2022-09-24T11:38:36.844Z,4.80
2022-09-24T11:41:15.380Z,3.80
2022-09-24T11:44:07.066Z,4.30
2022-09-24T11:46:58.999Z,4.40
2022-09-24T11:52:44.179Z,4.45
2022-09-24T11:55:24.720Z,4.38
2022-09-24T11:58:18.319Z,4.68
2022-09-24T12:00:55.205Z,4.15
2022-09-24T12:06:45.232Z,4.63
2022-09-24T12:09:22.717Z,4.55
2022-09-24T12:11:56.139Z,4.50
2022-09-24T12:14:27.047Z,4.60
2022-09-24T12:17:01.178Z,5.10
2022-09-24T12:19:53.818Z,4.50
2022-09-24T12:22:22.258Z,4.50
2022-09-24T12:24:54.834Z,4.40
2022-09-24T12:27:28.484Z,4.40
2022-09-24T12:32:42.809Z,5.70
2022-09-24T12:35:28.269Z,4.70
2022-09-24T12:38:14.864Z,5.05
2022-09-24T12:41:15.287Z,4.70
2022-09-24T12:43:59.103Z,5.10
2022-09-24T12:46:41.561Z,5.60
2022-09-24T12:49:26.524Z,5.72
2022-09-24T12:51:58.397Z,6.47
2022-09-24T12:54:33.032Z,5.80
2022-09-24T12:57:26.012Z,5.30
2022-09-24T12:59:59.111Z,6.30
2022-09-24T13:02:31.171Z,7.20
2022-09-24T13:05:03.804Z,8.35
2022-09-24T13:07:39.629Z,8.02
2022-09-24T13:10:26.793Z,7.88
2022-09-24T13:12:53.789Z,7.25
2022-09-24T13:18:22.423Z,7.10
2022-09-24T13:20:59.866Z,7.07
2022-09-24T13:23:26.562Z,7.50
2022-09-24T13:26:05.395Z,6.80
2022-09-24T13:28:52.837Z,7.60
2022-09-24T13:34:18.856Z,6.88
2022-09-24T13:37:03.087Z,7.22
2022-09-24T13:39:33.803Z,7.00
2022-09-24T13:42:14.628Z,7.78
2022-09-24T13:44:53.763Z,8.00
2022-09-24T13:50:16.191Z,6.35
2022-09-24T13:53:12.002Z,6.00
2022-09-24T13:58:40.267Z,5.60
2022-09-24T14:01:23.031Z,6.23
2022-09-24T14:04:05.954Z,7.10
2022-09-24T14:06:34.593Z,6.40
2022-09-24T14:09:01.572Z,6.90
2022-09-24T14:11:28.660Z,6.85
2022-09-24T14:13:55.644Z,6.80
2022-09-24T14:16:24.507Z,6.05
2022-09-24T14:21:59.084Z,5.68
2022-09-24T14:24:37.210Z,5.13
2022-09-24T14:27:12.126Z,5.90
2022-09-24T14:29:48.330Z,6.30
2022-09-24T14:32:29.327Z,6.43
2022-09-24T14:34:58.952Z,6.25
2022-09-24T14:37:31.934Z,7.13
2022-09-24T14:42:57.583Z,6.68
2022-09-24T14:45:37.924Z,10.30
2022-09-24T14:48:17.184Z,8.27
2022-09-24T14:53:33.504Z,8.15
2022-09-24T14:56:01.170Z,8.40
2022-09-24T14:58:30.614Z,9.07
2022-09-24T15:01:00.693Z,9.63
2022-09-24T15:03:39.014Z,9.20
2022-09-24T15:06:23.296Z,10.18
2022-09-24T15:08:59.052Z,9.60
2022-09-24T15:11:27.591Z,11.10
2022-09-24T15:14:31.366Z,12.32
2022-09-24T15:17:19.550Z,11.68
2022-09-24T15:19:46.256Z,12.10
2022-09-24T15:22:12.986Z,13.48
2022-09-24T15:24:39.978Z,12.75
2022-09-24T15:27:18.714Z,12.82
2022-09-24T15:32:33.568Z,15.05
2022-09-24T15:37:47.577Z,14.55
2022-09-24T15:40:21.090Z,14.30
2022-09-24T15:42:47.929Z,14.18
2022-09-24T15:45:20.465Z,15.97
2022-09-24T15:47:51.228Z,16.20
2022-09-24T15:50:22.645Z,16.90
2022-09-24T15:52:58.345Z,17.50
2022-09-24T15:55:25.143Z,19.30
2022-09-24T15:57:51.870Z,19.47
2022-09-24T16:00:21.814Z,20.40
2022-09-24T16:02:51.508Z,19.58
2022-09-24T16:05:19.532Z,20.25
2022-09-24T16:07:50.021Z,20.30
2022-09-24T16:10:17.390Z,20.00
2022-09-24T16:12:44.236Z,21.83
2022-09-24T16:15:15.869Z,23.40
2022-09-24T16:17:43.548Z,20.90
2022-09-24T16:20:10.553Z,20.90
2022-09-24T16:22:37.360Z,19.00
2022-09-24T16:25:04.482Z,19.70
2022-09-24T16:27:31.240Z,18.80
2022-09-24T16:29:58.025Z,20.92
2022-09-24T16:32:24.858Z,20.05
2022-09-24T16:34:51.551Z,19.40
2022-09-24T16:37:18.353Z,17.55
2022-09-24T16:39:45.081Z,18.47
2022-09-24T16:42:11.861Z,17.75
2022-09-24T16:47:25.264Z,17.45
2022-09-24T16:52:38.679Z,14.50
2022-09-24T16:57:53.151Z,14.68
2022-09-24T17:03:06.906Z,15.93
2022-09-24T17:08:24.335Z,13.13
2022-09-24T17:10:54.761Z,11.90
2022-09-24T17:13:23.716Z,11.75
2022-09-24T17:15:50.498Z,11.53
2022-09-24T17:18:17.348Z,11.18
2022-09-24T17:20:44.078Z,11.40
2022-09-24T17:23:10.803Z,10.43
2022-09-24T17:25:37.545Z,10.40
2022-09-24T17:28:04.283Z,10.40
2022-09-24T17:30:30.984Z,10.20
2022-09-24T17:32:57.739Z,11.30
2022-09-24T17:33:46.516Z,0
2022-09-24T17:35:24.436Z,11.77
2022-09-24T17:37:51.173Z,12.30
2022-09-24T17:40:23.135Z,11.40
2022-09-24T17:42:51.009Z,12.47
2022-09-24T17:45:17.750Z,11.00
2022-09-24T17:47:44.486Z,11.63
2022-09-24T17:50:11.253Z,12.07
2022-09-24T17:52:37.950Z,12.18
2022-09-24T17:55:05.140Z,13.70
2022-09-24T17:57:31.868Z,12.95
2022-09-24T17:59:58.564Z,13.50
2022-09-24T18:02:25.361Z,13.13
2022-09-24T18:04:52.132Z,13.02
2022-09-24T18:07:18.939Z,13.80
2022-09-24T18:09:45.687Z,13.90
2022-09-24T18:12:17.092Z,15.40
2022-09-24T18:14:44.120Z,15.52
2022-09-24T18:17:10.824Z,17.05
2022-09-24T18:19:37.551Z,16.38
2022-09-24T18:22:04.260Z,15.98
2022-09-24T18:24:30.982Z,16.10
2022-09-24T18:26:57.700Z,17.65
2022-09-24T18:29:24.418Z,17.33
2022-09-24T18:31:51.118Z,16.30
2022-09-24T18:34:18.257Z,16.07
2022-09-24T18:36:45.581Z,16.23
2022-09-24T18:39:15.873Z,16.70
2022-09-24T18:41:44.501Z,17.02
2022-09-24T18:44:11.576Z,16.25
2022-09-24T18:46:38.392Z,15.95
2022-09-24T18:49:05.204Z,16.90
2022-09-24T18:54:20.834Z,17.60
2022-09-24T18:56:47.619Z,17.45
2022-09-24T18:59:17.536Z,16.40
2022-09-24T19:01:45.822Z,17.03
2022-09-24T19:07:00.745Z,17.48
2022-09-24T19:12:14.126Z,17.98
2022-09-24T19:14:40.865Z,17.50
2022-09-24T19:17:07.606Z,17.98
2022-09-24T19:19:34.342Z,18.13
2022-09-24T19:22:01.058Z,17.98
2022-09-24T19:24:27.840Z,18.07
2022-09-24T19:26:54.572Z,18.95
2022-09-24T19:29:21.291Z,18.70
2022-09-24T19:31:48.052Z,18.75
2022-09-24T19:34:14.783Z,18.83
2022-09-24T19:36:44.224Z,18.40
2022-09-24T19:39:16.097Z,20.00
2022-09-24T19:41:43.794Z,19.13
2022-09-24T19:44:10.912Z,20.30
2022-09-24T19:46:37.979Z,19.45
2022-09-24T19:49:04.764Z,20.30
2022-09-24T19:51:33.584Z,21.67
2022-09-24T19:54:02.871Z,20.92
2022-09-24T19:56:30.236Z,21.90
2022-09-24T20:01:45.370Z,19.93
2022-09-24T20:04:12.290Z,21.35
2022-09-24T20:06:39.137Z,19.73
2022-09-24T20:09:06.890Z,20.77
2022-09-24T20:11:33.961Z,20.35
2022-09-24T20:14:01.432Z,20.77
2022-09-24T20:16:29.538Z,20.30
2022-09-24T20:18:57.110Z,20.45
2022-09-24T20:21:25.921Z,18.90
2022-09-24T20:23:54.164Z,20.52
2022-09-24T20:26:20.918Z,21.23
2022-09-24T20:28:47.723Z,20.50
2022-09-24T20:31:16.630Z,20.60
2022-09-24T20:33:43.402Z,20.23
2022-09-24T20:36:15.818Z,20.50
2022-09-24T20:38:47.364Z,20.92
2022-09-24T20:41:25.102Z,19.03
2022-09-24T20:43:54.281Z,20.20
2022-09-24T20:46:23.698Z,21.30
2022-09-24T20:48:51.844Z,21.27
2022-09-24T20:51:21.164Z,19.88
2022-09-24T20:53:49.161Z,21.15
2022-09-24T20:56:17.516Z,20.60
2022-09-24T20:58:45.008Z,21.38
2022-09-24T21:03:58.597Z,24.15
2022-09-24T21:06:25.564Z,23.43
2022-09-24T21:08:53.008Z,23.98
2022-09-24T21:11:22.249Z,23.30
2022-09-24T21:13:52.155Z,22.25
2022-09-24T21:16:22.185Z,22.00
2022-09-24T21:21:37.323Z,21.60
2022-09-24T21:26:51.590Z,22.08
2022-09-24T21:32:05.922Z,20.30
2022-09-24T21:37:19.306Z,20.50
2022-09-24T21:39:46.013Z,19.58
2022-09-24T21:42:12.867Z,21.53
2022-09-24T21:44:39.766Z,21.10
2022-09-24T21:47:06.545Z,19.10
2022-09-24T21:49:33.277Z,20.02
2022-09-24T21:51:59.999Z,19.92
2022-09-24T21:54:26.744Z,19.52
2022-09-24T21:59:40.164Z,20.70
2022-09-24T22:02:06.969Z,20.17
2022-09-24T22:04:33.802Z,19.77
2022-09-24T22:07:01.012Z,19.88
2022-09-24T22:09:28.488Z,20.08
2022-09-24T22:11:55.490Z,20.25
2022-09-24T22:14:23.009Z,20.50
2022-09-24T22:16:49.785Z,20.50
2022-09-24T22:19:16.704Z,21.58
2022-09-24T22:21:43.484Z,21.83
2022-09-24T22:24:10.829Z,21.40
2022-09-24T22:26:37.830Z,22.20
2022-09-24T22:29:04.770Z,21.13
2022-09-24T22:31:32.660Z,22.55
2022-09-24T22:33:59.408Z,22.50
2022-09-24T22:36:28.215Z,23.13
2022-09-24T22:38:55.834Z,24.08
2022-09-24T22:41:23.295Z,24.70
2022-09-24T22:43:50.550Z,22.13
2022-09-24T22:46:17.775Z,23.67
2022-09-24T22:47:39.307Z,0
2022-09-24T22:51:31.846Z,22.70
2022-09-24T22:56:45.265Z,22.10
2022-09-24T22:59:12.380Z,22.30
2022-09-24T23:01:42.463Z,23.58
2022-09-24T23:04:10.842Z,21.10
2022-09-24T23:09:24.230Z,19.90
2022-09-24T23:11:50.953Z,19.50
2022-09-24T23:14:17.745Z,19.40
2022-09-24T23:16:45.116Z,18.17
2022-09-24T23:22:04.265Z,19.40
2022-09-24T23:24:31.006Z,18.55
2022-09-24T23:26:57.725Z,16.58
2022-09-24T23:29:24.441Z,17.17
2022-09-24T23:31:51.631Z,17.30
2022-09-24T23:34:18.341Z,17.05
2022-09-24T23:36:45.118Z,16.00
2022-09-24T23:39:11.947Z,15.70
2022-09-24T23:41:38.660Z,16.20
2022-09-24T23:44:05.983Z,14.73
2022-09-24T23:46:33.430Z,15.57
2022-09-24T23:49:00.256Z,14.88
2022-09-24T23:51:27.023Z,14.55
2022-09-24T23:53:54.698Z,15.82
2022-09-24T23:56:21.514Z,14.82
2022-09-24T23:58:48.390Z,15.43
